createdAt,value
2023-02-17T00:02:15.754Z,49.17
2023-02-17T00:04:42.292Z,51.17
2023-02-17T00:07:08.793Z,49.50
2023-02-17T00:09:36.917Z,50.33
2023-02-17T00:12:03.630Z,50.47
2023-02-17T00:14:30.256Z,49.07
2023-02-17T00:16:57.551Z,48.23
2023-02-17T00:19:25.248Z,46.97
2023-02-17T00:22:10.395Z,48.90
2023-02-17T00:24:40.623Z,49.90
2023-02-17T00:27:07.308Z,47.60
2023-02-17T00:29:34.040Z,50.13
2023-02-17T00:32:00.717Z,50.77
2023-02-17T00:34:28.150Z,48.57
2023-02-17T00:36:54.657Z,49.70
2023-02-17T00:39:21.213Z,48.50
2023-02-17T00:41:47.801Z,48.10
2023-02-17T00:44:22.224Z,47.17
2023-02-17T00:46:48.968Z,46.00
2023-02-17T00:49:20.722Z,45.97
2023-02-17T00:51:47.840Z,47.90
2023-02-17T00:54:14.776Z,46.93
2023-02-17T00:56:41.678Z,45.70
2023-02-17T00:59:08.811Z,45.43
2023-02-17T01:01:35.893Z,46.33
2023-02-17T01:04:02.632Z,46.00
2023-02-17T01:06:32.909Z,45.40
2023-02-17T01:08:59.457Z,45.00
2023-02-17T01:11:29.858Z,46.27
2023-02-17T01:13:57.424Z,44.40
2023-02-17T01:16:27.590Z,45.30
2023-02-17T01:18:54.363Z,43.17
2023-02-17T01:21:27.300Z,45.07
2023-02-17T01:23:56.586Z,46.10
2023-02-17T01:26:25.884Z,44.73
2023-02-17T01:28:53.967Z,44.53
2023-02-17T01:31:21.464Z,42.73
2023-02-17T01:33:48.093Z,43.73
2023-02-17T01:36:16.852Z,44.77
2023-02-17T01:38:43.752Z,42.83
2023-02-17T01:41:11.141Z,45.43
2023-02-17T01:43:37.587Z,45.77
2023-02-17T01:46:06.826Z,44.30
2023-02-17T01:48:35.151Z,45.00
2023-02-17T01:51:36.763Z,44.23
2023-02-17T01:54:08.479Z,42.80
2023-02-17T01:56:38.095Z,43.93
2023-02-17T01:59:13.284Z,43.03
2023-02-17T02:01:40.281Z,42.67
2023-02-17T02:04:07.378Z,44.23
2023-02-17T02:06:35.078Z,43.83
2023-02-17T02:09:06.344Z,43.57
2023-02-17T02:11:33.938Z,43.93
2023-02-17T02:14:00.950Z,43.50
2023-02-17T02:16:30.585Z,44.10
2023-02-17T02:19:18.717Z,42.43
2023-02-17T02:21:57.442Z,42.13
2023-02-17T02:24:33.268Z,42.60
2023-02-17T02:27:19.404Z,42.83
2023-02-17T02:29:57.494Z,42.80
2023-02-17T02:32:57.555Z,41.33
2023-02-17T02:35:36.959Z,44.20
2023-02-17T02:38:18.891Z,41.73
2023-02-17T02:40:53.143Z,43.13
2023-02-17T02:43:20.294Z,42.67
2023-02-17T02:45:46.790Z,43.07
2023-02-17T02:48:13.575Z,43.10
2023-02-17T02:51:05.983Z,42.50
2023-02-17T02:54:04.980Z,43.10
2023-02-17T02:56:56.235Z,43.50
2023-02-17T02:59:28.419Z,43.77
2023-02-17T03:02:05.913Z,44.57
2023-02-17T03:04:37.450Z,44.43
2023-02-17T03:07:09.616Z,43.23
2023-02-17T03:09:36.422Z,44.00
2023-02-17T03:12:02.975Z,42.60
2023-02-17T03:14:31.194Z,44.50
2023-02-17T03:16:58.332Z,43.67
2023-02-17T03:19:25.297Z,43.70
2023-02-17T03:22:10.276Z,43.60
2023-02-17T03:24:36.802Z,43.50
2023-02-17T03:27:03.507Z,43.03
2023-02-17T03:29:30.565Z,46.27
2023-02-17T03:31:57.480Z,44.73
2023-02-17T03:34:24.292Z,45.03
2023-02-17T03:36:50.886Z,46.77
2023-02-17T03:39:17.679Z,44.40
2023-02-17T03:41:44.228Z,46.63
2023-02-17T03:44:10.841Z,46.33
2023-02-17T03:46:39.979Z,46.00
2023-02-17T03:49:06.539Z,45.60
2023-02-17T03:51:33.135Z,46.87
2023-02-17T03:53:59.705Z,47.13
2023-02-17T03:56:26.639Z,48.53
2023-02-17T03:58:53.386Z,47.40
2023-02-17T04:01:20.019Z,46.07
2023-02-17T04:03:46.869Z,45.30
2023-02-17T04:06:13.550Z,46.07
2023-02-17T04:08:40.289Z,42.67
2023-02-17T04:11:09.160Z,45.10
2023-02-17T04:13:35.759Z,44.40
2023-02-17T04:16:04.367Z,45.60
2023-02-17T04:18:31.954Z,45.70
2023-02-17T04:20:58.584Z,46.47
2023-02-17T04:23:25.080Z,45.73
2023-02-17T04:25:51.682Z,46.87
2023-02-17T04:28:18.317Z,46.43
2023-02-17T04:30:46.328Z,47.80
2023-02-17T04:33:13.599Z,46.97
2023-02-17T04:35:40.553Z,46.53
2023-02-17T04:38:07.474Z,45.07
2023-02-17T04:40:34.227Z,46.90
2023-02-17T04:43:00.708Z,48.20
2023-02-17T04:45:27.231Z,49.10
2023-02-17T04:47:53.760Z,46.70
2023-02-17T04:50:21.091Z,46.03
2023-02-17T04:52:47.844Z,49.20
2023-02-17T04:55:14.464Z,50.33
2023-02-17T04:57:41.028Z,51.87
2023-02-17T05:00:08.444Z,49.50
2023-02-17T05:02:35.121Z,52.00
2023-02-17T05:05:01.714Z,51.00
2023-02-17T05:07:28.365Z,52.23
2023-02-17T05:09:54.913Z,55.00
2023-02-17T05:12:21.465Z,54.30
2023-02-17T05:14:48.069Z,53.90
2023-02-17T05:17:14.576Z,52.50
2023-02-17T05:19:41.049Z,53.43
2023-02-17T05:22:07.553Z,54.63
2023-02-17T05:24:34.085Z,55.93
2023-02-17T05:27:00.650Z,54.33
2023-02-17T05:29:27.175Z,58.23
2023-02-17T05:31:53.752Z,55.83
2023-02-17T05:34:20.251Z,54.10
2023-02-17T05:36:46.731Z,55.93
2023-02-17T05:39:13.197Z,55.23
2023-02-17T05:41:39.892Z,54.67
2023-02-17T05:44:06.355Z,56.13
2023-02-17T05:46:32.833Z,55.93
2023-02-17T05:48:59.458Z,54.77
2023-02-17T05:51:25.903Z,55.73
2023-02-17T05:53:52.364Z,53.33
2023-02-17T05:56:18.855Z,52.57
2023-02-17T05:58:45.317Z,54.43
2023-02-17T06:01:12.637Z,53.27
2023-02-17T06:03:39.323Z,50.73
2023-02-17T06:06:07.421Z,50.47
2023-02-17T06:08:35.110Z,48.90
2023-02-17T06:11:01.856Z,47.73
2023-02-17T06:13:28.365Z,47.63
2023-02-17T06:15:55.107Z,46.57
2023-02-17T06:18:21.738Z,46.23
2023-02-17T06:20:48.250Z,43.53
2023-02-17T06:23:14.817Z,43.87
2023-02-17T06:25:41.405Z,45.17
2023-02-17T06:28:07.992Z,44.27
2023-02-17T06:30:34.496Z,43.17
2023-02-17T06:33:01.200Z,42.33
2023-02-17T06:35:27.771Z,42.73
2023-02-17T06:37:54.347Z,43.17
2023-02-17T06:40:21.093Z,42.17
2023-02-17T06:42:47.600Z,41.63
2023-02-17T06:45:14.179Z,42.67
2023-02-17T06:47:40.801Z,42.07
2023-02-17T06:50:08.613Z,42.73
2023-02-17T06:52:35.227Z,39.90
2023-02-17T06:55:01.937Z,41.27
2023-02-17T06:57:28.598Z,40.77
2023-02-17T06:59:55.147Z,39.27
2023-02-17T07:02:22.732Z,41.97
2023-02-17T07:04:49.443Z,38.83
2023-02-17T07:07:15.926Z,39.33
2023-02-17T08:53:23.911Z,30.00
2023-02-17T08:55:50.517Z,30.87
2023-02-17T08:58:17.362Z,32.00
2023-02-17T09:00:44.002Z,30.40
2023-02-17T09:03:10.601Z,31.57
2023-02-17T09:05:37.472Z,30.13
2023-02-17T09:08:04.460Z,31.23
2023-02-17T09:10:31.557Z,31.50
2023-02-17T09:12:58.227Z,32.00
2023-02-17T09:15:24.786Z,32.60
2023-02-17T09:17:51.399Z,33.10
2023-02-17T09:20:24.751Z,33.17
2023-02-17T09:22:52.505Z,33.27
2023-02-17T09:25:19.240Z,35.13
2023-02-17T09:27:45.753Z,33.67
2023-02-17T09:30:12.954Z,34.13
2023-02-17T09:32:43.376Z,33.43
2023-02-17T09:35:14.797Z,33.87
2023-02-17T09:37:41.308Z,33.77
2023-02-17T09:40:09.798Z,33.97
2023-02-17T09:42:39.407Z,34.63
2023-02-17T09:45:11.934Z,32.80
2023-02-17T09:47:51.231Z,33.30
2023-02-17T09:50:27.884Z,33.43
2023-02-17T09:53:06.925Z,36.00
2023-02-17T09:55:38.876Z,36.13
2023-02-17T09:58:09.691Z,34.20
2023-02-17T10:00:41.596Z,32.83
2023-02-17T10:03:12.982Z,33.37
2023-02-17T10:05:45.482Z,32.00
2023-02-17T10:08:17.791Z,33.43
2023-02-17T10:11:01.067Z,35.17
2023-02-17T10:13:30.926Z,32.60
2023-02-17T10:16:03.316Z,34.83
2023-02-17T10:18:41.992Z,37.13
2023-02-17T10:21:13.420Z,38.27
2023-02-17T10:23:40.058Z,36.93
2023-02-17T10:26:13.608Z,39.00
2023-02-17T10:29:07.366Z,36.90
2023-02-17T10:31:48.186Z,36.23
2023-02-17T10:34:52.569Z,37.23
2023-02-17T10:37:21.840Z,38.70
2023-02-17T10:39:53.829Z,36.63
2023-02-17T10:42:28.186Z,38.57
2023-02-17T10:44:59.186Z,37.77
2023-02-17T10:47:25.791Z,36.20
2023-02-17T10:49:53.784Z,38.03
2023-02-17T10:52:22.836Z,37.30
2023-02-17T10:54:59.881Z,38.30
2023-02-17T10:57:30.310Z,35.60
2023-02-17T10:59:58.389Z,37.73
2023-02-17T11:02:41.625Z,35.33
2023-02-17T11:05:09.108Z,35.93
2023-02-17T11:07:38.252Z,36.63
2023-02-17T11:10:29.584Z,34.97
2023-02-17T11:12:58.751Z,37.77
2023-02-17T11:15:51.131Z,37.30
2023-02-17T11:18:28.446Z,37.93
2023-02-17T11:21:08.444Z,35.63
2023-02-17T11:23:36.061Z,37.67
2023-02-17T11:26:18.279Z,37.43
2023-02-17T11:28:45.306Z,39.50
2023-02-17T11:31:31.721Z,37.67
2023-02-17T11:33:58.327Z,37.43
2023-02-17T11:36:28.080Z,37.67
2023-02-17T11:38:58.062Z,38.87
2023-02-17T11:41:24.953Z,37.23
2023-02-17T11:43:53.879Z,37.17
2023-02-17T11:46:33.757Z,37.17
2023-02-17T11:49:37.314Z,36.07
2023-02-17T11:52:49.083Z,36.27
2023-02-17T11:55:22.432Z,36.03
2023-02-17T11:58:02.775Z,37.10
2023-02-17T12:00:54.502Z,36.77
2023-02-17T12:03:30.195Z,34.87
2023-02-17T12:06:24.574Z,36.23
2023-02-17T12:08:51.097Z,35.70
2023-02-17T12:11:27.826Z,36.33
2023-02-17T12:14:10.814Z,36.43
2023-02-17T12:16:45.031Z,35.13
2023-02-17T12:19:46.352Z,35.37
2023-02-17T12:22:31.726Z,35.83
2023-02-17T12:25:15.090Z,35.60
2023-02-17T12:28:00.339Z,34.93
2023-02-17T12:30:32.933Z,35.27
2023-02-17T12:33:07.463Z,34.57
2023-02-17T12:35:53.501Z,34.83
2023-02-17T12:38:34.828Z,33.10
2023-02-17T12:41:21.358Z,34.20
2023-02-17T12:43:51.023Z,32.33
2023-02-17T12:46:22.587Z,32.27
2023-02-17T12:48:58.019Z,33.30
2023-02-17T12:51:34.351Z,31.80
2023-02-17T12:54:17.217Z,32.30
2023-02-17T12:57:13.494Z,30.53
2023-02-17T12:59:42.137Z,31.20
2023-02-17T13:02:20.803Z,31.13
2023-02-17T13:04:52.993Z,31.77
2023-02-17T13:07:41.022Z,32.27
2023-02-17T13:10:08.247Z,30.63
2023-02-17T13:12:40.346Z,29.00
2023-02-17T13:15:27.242Z,28.90
2023-02-17T13:18:01.306Z,29.23
2023-02-17T13:20:45.962Z,27.07
2023-02-17T13:23:14.850Z,27.70
2023-02-17T13:25:41.572Z,28.67
2023-02-17T13:28:34.759Z,27.93
2023-02-17T13:31:22.404Z,26.20
2023-02-17T13:33:52.917Z,26.73
2023-02-17T13:36:28.084Z,28.20
2023-02-17T13:39:02.131Z,27.00
2023-02-17T13:41:33.542Z,27.47
2023-02-17T13:44:00.207Z,27.63
2023-02-17T13:46:27.336Z,28.37
2023-02-17T13:49:05.670Z,28.37
2023-02-17T13:51:33.595Z,30.27
2023-02-17T13:54:08.529Z,28.77
2023-02-17T13:56:35.108Z,30.03
2023-02-17T13:59:18.007Z,30.43
2023-02-17T14:01:46.214Z,29.20
2023-02-17T14:04:24.522Z,29.87
2023-02-17T14:06:52.645Z,29.07
2023-02-17T14:09:22.280Z,29.73
2023-02-17T14:11:49.768Z,27.90
2023-02-17T14:14:16.988Z,29.80
2023-02-17T14:16:44.307Z,28.43
2023-02-17T14:19:13.869Z,28.20
2023-02-17T14:21:45.687Z,29.70
2023-02-17T14:24:30.572Z,28.97
2023-02-17T14:27:03.319Z,28.27
2023-02-17T14:29:47.873Z,27.67
2023-02-17T14:32:40.292Z,27.73
2023-02-17T14:35:20.987Z,29.27
2023-02-17T14:37:47.853Z,28.90
2023-02-17T14:40:21.540Z,29.40
2023-02-17T14:42:48.329Z,28.43
2023-02-17T14:45:15.875Z,30.77
2023-02-17T14:47:43.194Z,30.73
2023-02-17T14:50:10.322Z,29.93
2023-02-17T14:52:42.387Z,29.33
2023-02-17T14:55:35.276Z,30.97
2023-02-17T14:58:02.342Z,27.93
2023-02-17T15:00:28.948Z,32.07
2023-02-17T15:02:56.443Z,31.23
2023-02-17T15:05:23.266Z,32.23
2023-02-17T15:07:50.263Z,30.53
2023-02-17T15:10:23.790Z,31.27
2023-02-17T15:12:51.235Z,29.50
2023-02-17T15:15:18.623Z,30.20
2023-02-17T15:17:45.305Z,31.00
2023-02-17T15:20:13.036Z,31.87
2023-02-17T15:22:41.799Z,29.40
2023-02-17T15:25:17.072Z,30.20
2023-02-17T15:27:43.764Z,30.40
2023-02-17T15:30:13.408Z,31.63
2023-02-17T15:32:40.392Z,31.80
2023-02-17T15:35:26.792Z,31.80
2023-02-17T15:37:53.996Z,31.53
2023-02-17T15:40:22.904Z,31.10
2023-02-17T15:42:57.509Z,32.40
2023-02-17T15:45:24.830Z,30.43
2023-02-17T15:47:55.873Z,31.07
2023-02-17T15:50:23.242Z,30.90
2023-02-17T15:52:51.140Z,31.03
2023-02-17T15:55:19.135Z,33.03
2023-02-17T15:57:48.485Z,33.37
2023-02-17T16:00:24.263Z,32.57
2023-02-17T16:02:51.084Z,32.23
2023-02-17T16:05:19.653Z,33.13
2023-02-17T16:07:46.627Z,31.13
2023-02-17T16:10:17.231Z,32.27
2023-02-17T16:12:44.232Z,32.50
2023-02-17T16:15:13.851Z,29.43
2023-02-17T16:17:41.037Z,29.97
2023-02-17T16:20:15.964Z,29.57
2023-02-17T16:22:43.733Z,32.43
2023-02-17T16:25:10.434Z,31.17
2023-02-17T16:27:37.944Z,29.73
2023-02-17T16:30:18.810Z,29.73
2023-02-17T16:32:45.841Z,27.57
2023-02-17T16:35:17.365Z,28.17
2023-02-17T16:38:07.720Z,28.07
2023-02-17T16:40:36.654Z,28.43
2023-02-17T16:43:03.732Z,28.83
2023-02-17T16:45:31.855Z,28.17
2023-02-17T16:48:00.297Z,28.40
2023-02-17T16:50:32.492Z,28.30
2023-02-17T16:53:01.876Z,26.43
2023-02-17T16:55:31.077Z,27.23
2023-02-17T16:57:58.153Z,26.83
2023-02-17T17:00:27.925Z,27.90
2023-02-17T17:02:54.570Z,28.23
2023-02-17T17:05:21.336Z,27.90
2023-02-17T17:07:48.105Z,28.67
2023-02-17T17:10:18.967Z,29.30
2023-02-17T17:12:46.054Z,28.20
2023-02-17T17:15:12.996Z,26.90
2023-02-17T17:18:01.305Z,28.20
2023-02-17T17:20:34.183Z,28.83
2023-02-17T17:23:05.934Z,26.57
2023-02-17T17:25:33.426Z,26.80
2023-02-17T17:28:00.038Z,26.70
2023-02-17T17:30:30.732Z,26.27
2023-02-17T17:32:57.642Z,25.77
2023-02-17T17:35:24.782Z,23.60
2023-02-17T17:37:51.336Z,23.60
2023-02-17T17:40:22.185Z,23.00
2023-02-17T17:42:49.404Z,23.00
2023-02-17T17:45:16.164Z,22.60
2023-02-17T17:47:42.695Z,22.40
2023-02-17T17:50:17.193Z,22.43
2023-02-17T17:52:44.936Z,21.47
2023-02-17T17:55:12.024Z,20.40
2023-02-17T17:57:38.823Z,20.63
2023-02-17T18:00:14.105Z,21.10
2023-02-17T18:02:40.810Z,21.33
2023-02-17T18:05:07.846Z,19.80
2023-02-17T18:07:36.700Z,20.50
2023-02-17T18:10:05.523Z,19.73
2023-02-17T18:12:32.341Z,21.60
2023-02-17T18:15:02.613Z,19.40
2023-02-17T18:17:29.272Z,18.40
2023-02-17T18:19:57.255Z,17.77
2023-02-17T18:22:24.094Z,17.77
2023-02-17T18:24:50.695Z,19.33
2023-02-17T18:27:17.270Z,18.33
2023-02-17T18:29:44.201Z,19.27
2023-02-17T18:32:10.963Z,17.47
2023-02-17T18:34:37.528Z,19.57
2023-02-17T18:37:04.111Z,19.97
2023-02-17T18:39:30.655Z,20.67
2023-02-17T18:41:57.852Z,20.20
2023-02-17T18:44:24.355Z,21.77
2023-02-17T18:46:50.856Z,21.37
2023-02-17T18:49:17.336Z,21.30
2023-02-17T18:51:43.904Z,22.13
2023-02-17T18:54:11.088Z,21.30
2023-02-17T18:56:37.765Z,23.37
2023-02-17T18:59:04.999Z,24.47
2023-02-17T19:01:33.756Z,25.93
2023-02-17T19:04:00.428Z,26.17
2023-02-17T19:06:29.577Z,25.23
2023-02-17T19:08:57.371Z,25.03
2023-02-17T19:11:24.578Z,26.87
2023-02-17T19:13:52.159Z,28.40
2023-02-17T19:16:24.908Z,28.90
2023-02-17T19:18:52.146Z,29.87
2023-02-17T19:21:19.103Z,29.83
2023-02-17T19:23:45.781Z,30.77
2023-02-17T19:26:13.228Z,29.87
2023-02-17T19:28:40.430Z,32.43
2023-02-17T19:31:12.854Z,32.60
2023-02-17T19:33:39.843Z,33.30
2023-02-17T19:36:12.012Z,34.30
2023-02-17T19:38:38.709Z,34.33
2023-02-17T19:41:06.959Z,36.53
2023-02-17T19:43:33.718Z,37.37
2023-02-17T19:46:00.428Z,37.03
2023-02-17T19:48:27.086Z,38.23
2023-02-17T19:51:00.947Z,38.80
2023-02-17T19:53:27.942Z,38.03
2023-02-17T19:55:54.578Z,38.43
2023-02-17T19:58:21.073Z,40.93
2023-02-17T20:00:47.546Z,38.57
2023-02-17T20:03:14.017Z,39.00
2023-02-17T20:05:41.324Z,39.07
2023-02-17T20:08:08.220Z,40.53
2023-02-17T20:10:34.785Z,40.37
2023-02-17T20:13:01.440Z,38.57
2023-02-17T20:15:27.990Z,37.80
2023-02-17T20:17:54.623Z,40.10
2023-02-17T20:20:21.147Z,37.67
2023-02-17T20:22:47.651Z,37.30
2023-02-17T20:25:14.142Z,37.70
2023-02-17T20:27:40.705Z,38.87
2023-02-17T20:30:07.917Z,36.47
2023-02-17T20:32:34.532Z,36.93
2023-02-17T20:35:01.619Z,34.87
2023-02-17T20:37:28.145Z,33.40
2023-02-17T20:39:54.607Z,32.97
2023-02-17T20:42:21.619Z,34.13
2023-02-17T20:44:50.310Z,32.77
2023-02-17T20:47:16.897Z,32.43
2023-02-17T20:49:43.358Z,30.97
2023-02-17T20:52:09.814Z,30.30
2023-02-17T20:54:36.308Z,29.23
2023-02-17T20:57:02.820Z,26.93
2023-02-17T20:59:29.455Z,25.73
2023-02-17T21:01:56.111Z,25.33
2023-02-17T21:04:22.581Z,24.47
2023-02-17T21:06:50.401Z,23.10
2023-02-17T21:09:18.464Z,23.37
2023-02-17T21:11:45.612Z,23.77
2023-02-17T21:14:12.625Z,22.87
2023-02-17T21:16:39.561Z,22.70
2023-02-17T21:19:06.277Z,22.27
2023-02-17T21:21:33.270Z,21.97
2023-02-17T21:23:59.890Z,21.63
2023-02-17T21:26:27.590Z,20.03
2023-02-17T21:28:54.711Z,18.67
2023-02-17T21:31:21.334Z,17.17
2023-02-17T21:33:48.018Z,16.37
2023-02-17T21:36:16.996Z,14.93
2023-02-17T21:38:44.013Z,13.70
2023-02-17T21:41:13.225Z,13.27
2023-02-17T21:43:58.671Z,11.57
2023-02-17T21:46:25.760Z,10.43
2023-02-17T21:48:53.381Z,10.87
2023-02-17T21:51:20.115Z,10.27
2023-02-17T21:53:46.708Z,9.87
2023-02-17T21:56:13.425Z,9.30
2023-02-17T21:58:40.020Z,10.60
2023-02-17T22:01:07.381Z,9.20
2023-02-17T22:03:33.893Z,8.37
2023-02-17T22:06:00.486Z,8.80
2023-02-17T22:08:26.928Z,8.03
2023-02-17T22:10:53.457Z,6.07
2023-02-17T22:13:20.003Z,5.97
2023-02-17T22:15:46.501Z,5.53
2023-02-17T22:18:12.960Z,4.60
2023-02-17T22:20:43.312Z,4.33
2023-02-17T22:23:09.796Z,4.20
2023-02-17T22:25:41.303Z,3.70
2023-02-17T22:28:10.307Z,4.13
2023-02-17T22:30:37.376Z,2.93
2023-02-17T22:33:04.097Z,2.67
2023-02-17T22:35:30.634Z,1.97
2023-02-17T22:37:58.558Z,2.20
2023-02-17T22:40:25.634Z,2.20
2023-02-17T22:42:52.298Z,2.30
2023-02-17T22:45:18.796Z,2.97
2023-02-17T22:47:45.318Z,2.50
2023-02-17T22:50:11.804Z,2.40
2023-02-17T22:52:38.417Z,2.50
2023-02-17T22:55:05.210Z,2.57
2023-02-17T22:57:31.722Z,2.30
2023-02-17T22:59:58.190Z,2.90
2023-02-17T23:02:24.625Z,2.30
2023-02-17T23:04:51.070Z,2.60
2023-02-17T23:07:17.624Z,2.63
2023-02-17T23:09:44.191Z,2.83
2023-02-17T23:12:10.639Z,2.80
2023-02-17T23:14:39.053Z,2.80
2023-02-17T23:17:11.495Z,3.10
2023-02-17T23:19:39.060Z,3.20
2023-02-17T23:22:10.987Z,2.70
2023-02-17T23:24:37.807Z,2.87
2023-02-17T23:27:04.694Z,2.17
2023-02-17T23:29:32.309Z,2.30
2023-02-17T23:31:59.438Z,2.20
2023-02-17T23:34:26.854Z,1.90
2023-02-17T23:36:53.343Z,1.80
2023-02-17T23:39:19.837Z,1.37
2023-02-17T23:41:46.450Z,1.60
2023-02-17T23:44:14.057Z,1.97
2023-02-17T23:46:42.069Z,1.83
2023-02-17T23:49:08.986Z,2.10
2023-02-17T23:51:35.574Z,2.10
2023-02-17T23:54:02.188Z,1.83
2023-02-17T23:56:31.435Z,2.17
2023-02-17T23:58:58.334Z,2.30
